sensor_id;sensor_type;location;lat;lon;timestamp;pressure;altitude;pressure_sealevel;temperature;humidity
68758;BME280;55747;51.998;4.466;2023-04-10T00:00:30;56469.56;;;-144.48;78.69
68758;BME280;55747;51.998;4.466;2023-04-10T00:02:57;56448.91;;;-144.48;78.77
68758;BME280;55747;51.998;4.466;2023-04-10T00:05:22;56467.50;;;-144.48;78.95
68758;BME280;55747;51.998;4.466;2023-04-10T00:07:47;56484.06;;;-144.48;79.12
68758;BME280;55747;51.998;4.466;2023-04-10T00:10:12;56492.31;;;-144.48;79.58
68758;BME280;55747;51.998;4.466;2023-04-10T00:12:38;56463.38;;;-144.48;79.71
68758;BME280;55747;51.998;4.466;2023-04-10T00:15:03;56469.56;;;-144.48;79.88
68758;BME280;55747;51.998;4.466;2023-04-10T00:17:28;56475.78;;;-144.48;79.86
68758;BME280;55747;51.998;4.466;2023-04-10T00:19:54;56477.84;;;-144.48;79.33
68758;BME280;55747;51.998;4.466;2023-04-10T00:22:19;56500.59;;;-144.48;79.29
68758;BME280;55747;51.998;4.466;2023-04-10T00:24:44;56477.84;;;-144.48;79.33
68758;BME280;55747;51.998;4.466;2023-04-10T00:27:10;56494.38;;;-144.48;79.41
68758;BME280;55747;51.998;4.466;2023-04-10T00:29:35;56471.66;;;-144.48;78.91
68758;BME280;55747;51.998;4.466;2023-04-10T00:32:00;56492.31;;;-144.48;78.99
68758;BME280;55747;51.998;4.466;2023-04-10T00:34:25;56479.91;;;-144.48;79.35
68758;BME280;55747;51.998;4.466;2023-04-10T00:36:50;56494.38;;;-144.48;78.69
68758;BME280;55747;51.998;4.466;2023-04-10T00:39:15;56502.66;;;-144.48;77.82
68758;BME280;55747;51.998;4.466;2023-04-10T00:41:41;56461.31;;;-144.48;77.97
68758;BME280;55747;51.998;4.466;2023-04-10T00:44:06;56469.56;;;-144.48;77.56
68758;BME280;55747;51.998;4.466;2023-04-10T00:46:32;56459.25;;;-144.48;77.70
68758;BME280;55747;51.998;4.466;2023-04-10T00:48:59;56479.91;;;-144.48;77.31
68758;BME280;55747;51.998;4.466;2023-04-10T00:51:24;56473.72;;;-144.48;77.24
68758;BME280;55747;51.998;4.466;2023-04-10T00:53:50;56438.56;;;-144.48;77.55
68758;BME280;55747;51.998;4.466;2023-04-10T00:56:16;56527.47;;;-144.48;77.44
68758;BME280;55747;51.998;4.466;2023-04-10T00:58:42;56513.00;;;-144.48;77.37
68758;BME280;55747;51.998;4.466;2023-04-10T01:01:07;56498.53;;;-144.48;77.06
68758;BME280;55747;51.998;4.466;2023-04-10T01:03:32;56469.56;;;-144.48;77.20
68758;BME280;55747;51.998;4.466;2023-04-10T01:06:11;56486.13;;;-144.48;77.77
68758;BME280;55747;51.998;4.466;2023-04-10T01:11:38;56477.84;;;-144.48;78.14
68758;BME280;55747;51.998;4.466;2023-04-10T01:16:35;56479.91;;;-144.48;78.48
68758;BME280;55747;51.998;4.466;2023-04-10T01:21:46;56469.56;;;-144.48;78.91
68758;BME280;55747;51.998;4.466;2023-04-10T01:24:17;56473.72;;;-144.48;79.34
68758;BME280;55747;51.998;4.466;2023-04-10T01:29:29;56455.09;;;-144.48;79.80
68758;BME280;55747;51.998;4.466;2023-04-10T01:31:57;56504.72;;;-144.48;80.29
68758;BME280;55747;51.998;4.466;2023-04-10T01:34:32;56504.72;;;-144.48;80.75
68758;BME280;55747;51.998;4.466;2023-04-10T01:37:00;56484.06;;;-144.48;80.98
68758;BME280;55747;51.998;4.466;2023-04-10T01:39:26;56467.50;;;-144.48;81.46
68758;BME280;55747;51.998;4.466;2023-04-10T01:41:52;56477.84;;;-144.48;82.09
68758;BME280;55747;51.998;4.466;2023-04-10T01:44:22;56498.53;;;-144.48;82.21
68758;BME280;55747;51.998;4.466;2023-04-10T01:46:51;56498.53;;;-144.48;82.58
68758;BME280;55747;51.998;4.466;2023-04-10T01:49:16;56492.31;;;-144.48;82.94
68758;BME280;55747;51.998;4.466;2023-04-10T01:51:43;56490.25;;;-144.48;83.33
68758;BME280;55747;51.998;4.466;2023-04-10T01:54:08;56481.97;;;-144.48;83.79
68758;BME280;55747;51.998;4.466;2023-04-10T01:56:34;56459.25;;;-144.48;83.89
68758;BME280;55747;51.998;4.466;2023-04-10T01:58:59;56490.25;;;-144.48;84.05
68758;BME280;55747;51.998;4.466;2023-04-10T02:01:24;56484.06;;;-144.48;84.37
68758;BME280;55747;51.998;4.466;2023-04-10T02:03:51;56455.09;;;-144.48;84.71
68758;BME280;55747;51.998;4.466;2023-04-10T02:06:17;56513.00;;;-144.48;85.24
68758;BME280;55747;51.998;4.466;2023-04-10T02:08:50;56504.72;;;-144.48;85.73
68758;BME280;55747;51.998;4.466;2023-04-10T02:13:42;56515.06;;;-144.48;86.05
68758;BME280;55747;51.998;4.466;2023-04-10T02:16:07;56490.25;;;-144.48;86.39
68758;BME280;55747;51.998;4.466;2023-04-10T02:18:36;56469.56;;;-144.48;86.56
68758;BME280;55747;51.998;4.466;2023-04-10T02:21:02;56486.13;;;-144.48;86.43
68758;BME280;55747;51.998;4.466;2023-04-10T02:23:27;56484.06;;;-144.48;86.94
68758;BME280;55747;51.998;4.466;2023-04-10T02:25:53;56510.94;;;-144.48;87.10
68758;BME280;55747;51.998;4.466;2023-04-10T02:28:20;56479.91;;;-144.48;87.50
68758;BME280;55747;51.998;4.466;2023-04-10T02:30:45;56471.66;;;-144.48;87.50
68758;BME280;55747;51.998;4.466;2023-04-10T02:33:10;56496.44;;;-144.48;87.88
68758;BME280;55747;51.998;4.466;2023-04-10T02:35:35;56504.72;;;-144.48;87.80
68758;BME280;55747;51.998;4.466;2023-04-10T02:38:01;56484.06;;;-144.48;87.42
68758;BME280;55747;51.998;4.466;2023-04-10T02:40:26;56498.53;;;-144.48;87.53
68758;BME280;55747;51.998;4.466;2023-04-10T02:42:51;56500.59;;;-144.48;88.06
68758;BME280;55747;51.998;4.466;2023-04-10T02:45:17;56477.84;;;-144.48;88.29
68758;BME280;55747;51.998;4.466;2023-04-10T02:47:42;56500.59;;;-144.48;87.92
68758;BME280;55747;51.998;4.466;2023-04-10T02:50:07;56492.31;;;-144.48;88.04
68758;BME280;55747;51.998;4.466;2023-04-10T02:52:33;56484.06;;;-144.48;88.36
68758;BME280;55747;51.998;4.466;2023-04-10T02:54:58;56527.47;;;-144.48;88.34
68758;BME280;55747;51.998;4.466;2023-04-10T02:57:23;56467.50;;;-144.48;88.58
68758;BME280;55747;51.998;4.466;2023-04-10T02:59:49;56484.06;;;-144.48;88.28
68758;BME280;55747;51.998;4.466;2023-04-10T03:02:14;56500.59;;;-144.48;88.47
68758;BME280;55747;51.998;4.466;2023-04-10T03:04:40;56465.44;;;-144.48;88.44
68758;BME280;55747;51.998;4.466;2023-04-10T03:07:05;56517.13;;;-144.48;88.75
68758;BME280;55747;51.998;4.466;2023-04-10T03:09:30;56517.13;;;-144.48;88.67
68758;BME280;55747;51.998;4.466;2023-04-10T03:11:55;56521.25;;;-144.48;88.46
68758;BME280;55747;51.998;4.466;2023-04-10T03:14:21;56519.19;;;-144.48;88.13
68758;BME280;55747;51.998;4.466;2023-04-10T03:16:46;56475.78;;;-144.48;87.94
68758;BME280;55747;51.998;4.466;2023-04-10T03:19:12;56500.59;;;-144.48;87.29
68758;BME280;55747;51.998;4.466;2023-04-10T03:21:37;56494.38;;;-144.48;87.00
68758;BME280;55747;51.998;4.466;2023-04-10T03:24:02;56463.38;;;-144.48;86.81
68758;BME280;55747;51.998;4.466;2023-04-10T03:26:27;56504.72;;;-144.48;86.78
68758;BME280;55747;51.998;4.466;2023-04-10T03:28:53;56475.78;;;-144.48;86.55
68758;BME280;55747;51.998;4.466;2023-04-10T03:31:18;56492.31;;;-144.48;85.93
68758;BME280;55747;51.998;4.466;2023-04-10T03:33:43;56513.00;;;-144.48;85.27
68758;BME280;55747;51.998;4.466;2023-04-10T03:36:08;56498.53;;;-144.48;84.79
68758;BME280;55747;51.998;4.466;2023-04-10T03:38:35;56461.31;;;-144.48;84.58
68758;BME280;55747;51.998;4.466;2023-04-10T03:41:00;56492.31;;;-144.48;84.81
68758;BME280;55747;51.998;4.466;2023-04-10T03:43:25;56525.41;;;-144.48;83.90
68758;BME280;55747;51.998;4.466;2023-04-10T03:45:50;56484.06;;;-144.48;83.98
68758;BME280;55747;51.998;4.466;2023-04-10T03:48:16;56498.53;;;-144.48;83.63
68758;BME280;55747;51.998;4.466;2023-04-10T03:50:41;56469.56;;;-144.48;83.01
68758;BME280;55747;51.998;4.466;2023-04-10T03:53:07;56479.91;;;-144.48;83.04
68758;BME280;55747;51.998;4.466;2023-04-10T03:55:32;56471.66;;;-144.48;82.56
68758;BME280;55747;51.998;4.466;2023-04-10T03:57:57;56463.38;;;-144.48;82.49
68758;BME280;55747;51.998;4.466;2023-04-10T04:00:23;56492.31;;;-144.48;80.55
68758;BME280;55747;51.998;4.466;2023-04-10T04:02:48;56469.56;;;-144.48;80.20
68758;BME280;55747;51.998;4.466;2023-04-10T04:05:16;56467.50;;;-144.48;79.21
68758;BME280;55747;51.998;4.466;2023-04-10T04:07:42;56521.25;;;-144.48;79.22
68758;BME280;55747;51.998;4.466;2023-04-10T04:10:07;56484.06;;;-144.48;79.42
68758;BME280;55747;51.998;4.466;2023-04-10T04:12:32;56465.44;;;-144.48;78.08
68758;BME280;55747;51.998;4.466;2023-04-10T04:14:57;56496.44;;;-144.48;77.75
68758;BME280;55747;51.998;4.466;2023-04-10T04:17:23;56500.59;;;-144.48;76.90
68758;BME280;55747;51.998;4.466;2023-04-10T04:19:48;56504.72;;;-144.48;77.26
68758;BME280;55747;51.998;4.466;2023-04-10T04:22:13;56500.59;;;-144.48;76.71
68758;BME280;55747;51.998;4.466;2023-04-10T04:24:39;56471.66;;;-144.48;76.59
68758;BME280;55747;51.998;4.466;2023-04-10T04:27:04;56490.25;;;-144.48;75.95
68758;BME280;55747;51.998;4.466;2023-04-10T04:29:29;56490.25;;;-144.48;76.56
68758;BME280;55747;51.998;4.466;2023-04-10T04:31:55;56488.19;;;-144.48;76.47
68758;BME280;55747;51.998;4.466;2023-04-10T04:34:20;56475.78;;;-144.48;76.35
68758;BME280;55747;51.998;4.466;2023-04-10T04:36:46;56479.91;;;-144.48;76.89
68758;BME280;55747;51.998;4.466;2023-04-10T04:39:11;56494.38;;;-144.48;76.19
68758;BME280;55747;51.998;4.466;2023-04-10T04:41:36;56471.66;;;-144.48;76.38
68758;BME280;55747;51.998;4.466;2023-04-10T04:44:01;56496.44;;;-144.48;76.51
68758;BME280;55747;51.998;4.466;2023-04-10T04:46:27;56486.13;;;-144.48;76.72
68758;BME280;55747;51.998;4.466;2023-04-10T04:48:52;56481.97;;;-144.48;76.84
68758;BME280;55747;51.998;4.466;2023-04-10T04:51:17;56494.38;;;-144.48;76.00
68758;BME280;55747;51.998;4.466;2023-04-10T04:53:42;56473.72;;;-144.48;75.95
68758;BME280;55747;51.998;4.466;2023-04-10T04:56:08;56488.19;;;-144.48;76.05
68758;BME280;55747;51.998;4.466;2023-04-10T04:58:33;56481.97;;;-144.48;74.56
68758;BME280;55747;51.998;4.466;2023-04-10T05:00:58;56504.72;;;-144.48;74.63
68758;BME280;55747;51.998;4.466;2023-04-10T05:03:24;56469.56;;;-144.48;74.56
68758;BME280;55747;51.998;4.466;2023-04-10T05:05:49;56521.25;;;-144.48;74.50
68758;BME280;55747;51.998;4.466;2023-04-10T05:08:14;56463.38;;;-144.48;74.77
68758;BME280;55747;51.998;4.466;2023-04-10T05:10:40;56479.91;;;-144.48;74.45
68758;BME280;55747;51.998;4.466;2023-04-10T05:13:05;56479.91;;;-144.48;74.57
68758;BME280;55747;51.998;4.466;2023-04-10T05:15:30;56500.59;;;-144.48;74.81
68758;BME280;55747;51.998;4.466;2023-04-10T05:17:55;56459.25;;;-144.48;74.50
68758;BME280;55747;51.998;4.466;2023-04-10T05:20:20;56510.94;;;-144.48;74.09
68758;BME280;55747;51.998;4.466;2023-04-10T05:22:46;56450.97;;;-144.48;74.05
68758;BME280;55747;51.998;4.466;2023-04-10T05:25:11;56465.44;;;-144.48;73.73
68758;BME280;55747;51.998;4.466;2023-04-10T05:27:36;56461.31;;;-144.48;73.12
68758;BME280;55747;51.998;4.466;2023-04-10T05:30:02;56479.91;;;-144.48;73.02
68758;BME280;55747;51.998;4.466;2023-04-10T05:32:28;56519.19;;;-144.48;72.39
68758;BME280;55747;51.998;4.466;2023-04-10T05:34:53;56490.25;;;-144.48;72.15
68758;BME280;55747;51.998;4.466;2023-04-10T05:37:18;56481.97;;;-144.48;72.86
68758;BME280;55747;51.998;4.466;2023-04-10T05:39:43;56519.19;;;-144.48;72.93
68758;BME280;55747;51.998;4.466;2023-04-10T05:42:08;56467.50;;;-144.48;72.72
68758;BME280;55747;51.998;4.466;2023-04-10T05:44:34;56465.44;;;-144.48;72.01
68758;BME280;55747;51.998;4.466;2023-04-10T05:46:59;56469.56;;;-144.48;71.69
68758;BME280;55747;51.998;4.466;2023-04-10T05:49:24;56486.13;;;-144.48;71.93
68758;BME280;55747;51.998;4.466;2023-04-10T05:51:49;56517.13;;;-144.48;71.58
68758;BME280;55747;51.998;4.466;2023-04-10T05:54:16;56475.78;;;-144.48;71.63
68758;BME280;55747;51.998;4.466;2023-04-10T05:56:41;56477.84;;;-144.48;71.20
68758;BME280;55747;51.998;4.466;2023-04-10T05:59:06;56477.84;;;-144.48;71.54
68758;BME280;55747;51.998;4.466;2023-04-10T06:01:31;56430.28;;;-144.48;71.62
68758;BME280;55747;51.998;4.466;2023-04-10T06:03:56;56459.25;;;-144.48;72.42
68758;BME280;55747;51.998;4.466;2023-04-10T06:06:22;56471.66;;;-144.48;72.97
68758;BME280;55747;51.998;4.466;2023-04-10T06:08:49;56479.91;;;-144.48;73.13
68758;BME280;55747;51.998;4.466;2023-04-10T06:11:14;56461.31;;;-144.48;73.23
68758;BME280;55747;51.998;4.466;2023-04-10T06:13:40;56500.59;;;-144.48;73.05
68758;BME280;55747;51.998;4.466;2023-04-10T06:16:05;56479.91;;;-144.48;73.20
68758;BME280;55747;51.998;4.466;2023-04-10T06:18:30;56481.97;;;-144.48;72.34
68758;BME280;55747;51.998;4.466;2023-04-10T06:20:56;56513.00;;;-144.48;72.37
68758;BME280;55747;51.998;4.466;2023-04-10T06:23:24;56471.66;;;-144.48;72.45
68758;BME280;55747;51.998;4.466;2023-04-10T06:25:49;56457.19;;;-144.48;72.61
68758;BME280;55747;51.998;4.466;2023-04-10T06:28:14;56496.44;;;-144.48;71.93
68758;BME280;55747;51.998;4.466;2023-04-10T06:30:39;56508.84;;;-144.48;71.34
68758;BME280;55747;51.998;4.466;2023-04-10T06:33:05;56461.31;;;-144.48;71.55
68758;BME280;55747;51.998;4.466;2023-04-10T06:35:30;56508.84;;;-144.48;71.13
68758;BME280;55747;51.998;4.466;2023-04-10T06:37:55;56455.09;;;-144.48;70.75
68758;BME280;55747;51.998;4.466;2023-04-10T06:40:20;56457.19;;;-144.48;70.29
68758;BME280;55747;51.998;4.466;2023-04-10T06:42:46;56481.97;;;-144.48;70.27
68758;BME280;55747;51.998;4.466;2023-04-10T06:45:11;56467.50;;;-144.48;70.70
68758;BME280;55747;51.998;4.466;2023-04-10T06:47:36;56488.19;;;-144.48;70.84
68758;BME280;55747;51.998;4.466;2023-04-10T06:50:01;56523.34;;;-144.48;69.84
68758;BME280;55747;51.998;4.466;2023-04-10T06:52:27;56457.19;;;-144.48;70.04
68758;BME280;55747;51.998;4.466;2023-04-10T06:54:52;56465.44;;;-144.48;69.11
68758;BME280;55747;51.998;4.466;2023-04-10T06:57:17;56488.19;;;-144.48;68.86
68758;BME280;55747;51.998;4.466;2023-04-10T06:59:43;56469.56;;;-144.48;68.86
68758;BME280;55747;51.998;4.466;2023-04-10T07:02:08;56455.09;;;-144.48;68.45
68758;BME280;55747;51.998;4.466;2023-04-10T07:04:34;56457.19;;;-144.48;68.47
68758;BME280;55747;51.998;4.466;2023-04-10T07:06:59;56486.13;;;-144.48;67.57
68758;BME280;55747;51.998;4.466;2023-04-10T07:09:24;56486.13;;;-144.48;68.17
68758;BME280;55747;51.998;4.466;2023-04-10T07:11:53;56510.94;;;-144.48;67.73
68758;BME280;55747;51.998;4.466;2023-04-10T07:14:18;56461.31;;;-144.48;68.24
68758;BME280;55747;51.998;4.466;2023-04-10T07:16:43;56453.03;;;-144.48;67.67
68758;BME280;55747;51.998;4.466;2023-04-10T07:19:08;56479.91;;;-144.48;67.85
68758;BME280;55747;51.998;4.466;2023-04-10T07:21:34;56484.06;;;-144.48;68.28
68758;BME280;55747;51.998;4.466;2023-04-10T07:23:59;56434.44;;;-144.48;68.15
68758;BME280;55747;51.998;4.466;2023-04-10T07:26:24;56504.72;;;-144.48;68.25
68758;BME280;55747;51.998;4.466;2023-04-10T07:28:50;56455.09;;;-144.48;67.95
68758;BME280;55747;51.998;4.466;2023-04-10T07:31:15;56473.72;;;-144.48;68.49
68758;BME280;55747;51.998;4.466;2023-04-10T07:33:42;56481.97;;;-144.48;68.20
68758;BME280;55747;51.998;4.466;2023-04-10T07:36:07;56459.25;;;-144.48;68.27
68758;BME280;55747;51.998;4.466;2023-04-10T07:38:32;56450.97;;;-144.48;67.76
68758;BME280;55747;51.998;4.466;2023-04-10T07:40:57;56504.72;;;-144.48;67.38
68758;BME280;55747;51.998;4.466;2023-04-10T07:43:23;56440.63;;;-144.48;66.71
68758;BME280;55747;51.998;4.466;2023-04-10T07:45:48;56481.97;;;-144.48;66.99
68758;BME280;55747;51.998;4.466;2023-04-10T07:48:13;56488.19;;;-144.48;67.11
68758;BME280;55747;51.998;4.466;2023-04-10T07:50:38;56508.84;;;-144.48;67.11
68758;BME280;55747;51.998;4.466;2023-04-10T07:53:04;56496.44;;;-144.48;66.57
68758;BME280;55747;51.998;4.466;2023-04-10T07:55:38;56473.72;;;-144.48;66.52
68758;BME280;55747;51.998;4.466;2023-04-10T07:58:03;56469.56;;;-144.48;67.47
68758;BME280;55747;51.998;4.466;2023-04-10T08:00:29;56457.19;;;-144.48;67.17
68758;BME280;55747;51.998;4.466;2023-04-10T08:02:54;56440.63;;;-144.48;67.22
68758;BME280;55747;51.998;4.466;2023-04-10T08:05:19;56492.31;;;-144.48;68.11
68758;BME280;55747;51.998;4.466;2023-04-10T08:07:45;56494.38;;;-144.48;67.66
68758;BME280;55747;51.998;4.466;2023-04-10T08:10:10;56477.84;;;-144.48;67.24
68758;BME280;55747;51.998;4.466;2023-04-10T08:12:36;56498.53;;;-144.48;67.37
68758;BME280;55747;51.998;4.466;2023-04-10T08:15:01;56500.59;;;-144.48;67.26
68758;BME280;55747;51.998;4.466;2023-04-10T08:17:26;56477.84;;;-144.48;67.52
68758;BME280;55747;51.998;4.466;2023-04-10T08:19:51;56496.44;;;-144.48;67.38
68758;BME280;55747;51.998;4.466;2023-04-10T08:22:16;56465.44;;;-144.48;67.08
68758;BME280;55747;51.998;4.466;2023-04-10T08:24:42;56490.25;;;-144.48;67.29
68758;BME280;55747;51.998;4.466;2023-04-10T08:27:07;56521.25;;;-144.48;66.31
68758;BME280;55747;51.998;4.466;2023-04-10T08:29:32;56484.06;;;-144.48;66.49
68758;BME280;55747;51.998;4.466;2023-04-10T08:31:57;56473.72;;;-144.48;65.50
68758;BME280;55747;51.998;4.466;2023-04-10T08:34:25;56450.97;;;-144.48;66.07
68758;BME280;55747;51.998;4.466;2023-04-10T08:36:50;56471.66;;;-144.48;65.86
68758;BME280;55747;51.998;4.466;2023-04-10T08:39:15;56465.44;;;-144.48;66.22
68758;BME280;55747;51.998;4.466;2023-04-10T08:41:40;56477.84;;;-144.48;65.19
68758;BME280;55747;51.998;4.466;2023-04-10T08:44:05;56442.69;;;-144.48;65.07
68758;BME280;55747;51.998;4.466;2023-04-10T08:46:31;56453.03;;;-144.48;64.43
68758;BME280;55747;51.998;4.466;2023-04-10T08:51:25;56471.66;;;-144.48;64.31
68758;BME280;55747;51.998;4.466;2023-04-10T08:53:53;56477.84;;;-144.48;65.01
68758;BME280;55747;51.998;4.466;2023-04-10T08:56:20;56481.97;;;-144.48;64.74
68758;BME280;55747;51.998;4.466;2023-04-10T08:58:46;56494.38;;;-144.48;65.14
68758;BME280;55747;51.998;4.466;2023-04-10T09:01:15;56471.66;;;-144.48;66.02
68758;BME280;55747;51.998;4.466;2023-04-10T09:03:40;56481.97;;;-144.48;65.47
68758;BME280;55747;51.998;4.466;2023-04-10T09:06:06;56484.06;;;-144.48;65.33
68758;BME280;55747;51.998;4.466;2023-04-10T09:08:31;56473.72;;;-144.48;65.33
68758;BME280;55747;51.998;4.466;2023-04-10T09:10:56;56463.38;;;-144.48;65.79
68758;BME280;55747;51.998;4.466;2023-04-10T09:13:55;56484.06;;;-144.48;65.97
68758;BME280;55747;51.998;4.466;2023-04-10T09:16:13;56479.91;;;-144.48;64.84
68758;BME280;55747;51.998;4.466;2023-04-10T09:21:08;56484.06;;;-144.48;64.98
68758;BME280;55747;51.998;4.466;2023-04-10T09:23:33;56492.31;;;-144.48;65.88
68758;BME280;55747;51.998;4.466;2023-04-10T09:25:58;56471.66;;;-144.48;66.38
68758;BME280;55747;51.998;4.466;2023-04-10T09:28:23;56444.78;;;-144.48;66.97
68758;BME280;55747;51.998;4.466;2023-04-10T09:30:48;56471.66;;;-144.48;66.15
68758;BME280;55747;51.998;4.466;2023-04-10T09:33:23;56492.31;;;-144.48;65.65
68758;BME280;55747;51.998;4.466;2023-04-10T09:35:51;56508.84;;;-144.48;66.11
68758;BME280;55747;51.998;4.466;2023-04-10T09:38:17;56473.72;;;-144.48;65.69
68758;BME280;55747;51.998;4.466;2023-04-10T09:40:43;56467.50;;;-144.48;66.22
68758;BME280;55747;51.998;4.466;2023-04-10T09:43:22;56473.72;;;-144.48;65.48
68758;BME280;55747;51.998;4.466;2023-04-10T09:48:15;56461.31;;;-144.48;64.80
68758;BME280;55747;51.998;4.466;2023-04-10T09:50:41;56455.09;;;-144.48;63.35
68758;BME280;55747;51.998;4.466;2023-04-10T09:53:07;56484.06;;;-144.48;64.15
68758;BME280;55747;51.998;4.466;2023-04-10T09:55:33;56459.25;;;-144.48;64.21
68758;BME280;55747;51.998;4.466;2023-04-10T09:57:58;56461.31;;;-144.48;63.74
68758;BME280;55747;51.998;4.466;2023-04-10T10:00:24;56450.97;;;-144.48;63.60
68758;BME280;55747;51.998;4.466;2023-04-10T10:02:49;56444.78;;;-144.48;63.78
68758;BME280;55747;51.998;4.466;2023-04-10T10:05:15;56484.06;;;-144.48;63.18
68758;BME280;55747;51.998;4.466;2023-04-10T10:07:41;56457.19;;;-144.48;61.45
68758;BME280;55747;51.998;4.466;2023-04-10T10:10:06;56432.38;;;-144.48;60.88
68758;BME280;55747;51.998;4.466;2023-04-10T10:15:22;56479.91;;;-144.48;58.45
68758;BME280;55747;51.998;4.466;2023-04-10T10:17:49;56477.84;;;-144.48;55.80
68758;BME280;55747;51.998;4.466;2023-04-10T10:20:16;56411.69;;;-144.48;56.55
68758;BME280;55747;51.998;4.466;2023-04-10T10:22:42;56473.72;;;-144.48;56.62
68758;BME280;55747;51.998;4.466;2023-04-10T10:25:09;56440.63;;;-144.48;57.75
68758;BME280;55747;51.998;4.466;2023-04-10T10:27:38;56419.97;;;-144.48;58.72
68758;BME280;55747;51.998;4.466;2023-04-10T10:30:04;56465.44;;;-144.48;58.07
68758;BME280;55747;51.998;4.466;2023-04-10T10:32:30;56453.03;;;-144.48;59.25
68758;BME280;55747;51.998;4.466;2023-04-10T10:34:56;56465.44;;;-144.48;57.54
68758;BME280;55747;51.998;4.466;2023-04-10T10:37:24;56475.78;;;-144.48;56.97
68758;BME280;55747;51.998;4.466;2023-04-10T10:39:56;56442.69;;;-144.48;55.44
68758;BME280;55747;51.998;4.466;2023-04-10T10:44:51;56459.25;;;-144.48;54.41
68758;BME280;55747;51.998;4.466;2023-04-10T10:47:23;56473.72;;;-144.48;54.88
68758;BME280;55747;51.998;4.466;2023-04-10T10:50:00;56419.97;;;-144.48;55.25
68758;BME280;55747;51.998;4.466;2023-04-10T10:52:35;56453.03;;;-144.48;52.92
68758;BME280;55747;51.998;4.466;2023-04-10T10:55:22;56471.66;;;-144.48;53.09
68758;BME280;55747;51.998;4.466;2023-04-10T10:57:46;56455.09;;;-144.48;53.71
68758;BME280;55747;51.998;4.466;2023-04-10T11:00:12;56426.16;;;-144.48;53.90
68758;BME280;55747;51.998;4.466;2023-04-10T11:02:37;56434.44;;;-144.48;54.51
68758;BME280;55747;51.998;4.466;2023-04-10T11:05:02;56457.19;;;-144.48;54.09
68758;BME280;55747;51.998;4.466;2023-04-10T11:08:06;56448.91;;;-144.48;53.58
68758;BME280;55747;51.998;4.466;2023-04-10T11:10:13;56428.22;;;-144.48;53.90
68758;BME280;55747;51.998;4.466;2023-04-10T11:13:25;56424.09;;;-144.48;53.67
68758;BME280;55747;51.998;4.466;2023-04-10T11:15:26;56426.16;;;-144.48;54.96
68758;BME280;55747;51.998;4.466;2023-04-10T11:17:51;56467.50;;;-144.48;54.86
68758;BME280;55747;51.998;4.466;2023-04-10T11:20:20;56450.97;;;-144.48;56.22
68758;BME280;55747;51.998;4.466;2023-04-10T11:25:49;56415.81;;;-144.48;56.72
68758;BME280;55747;51.998;4.466;2023-04-10T11:30:55;56442.69;;;-144.48;57.53
68758;BME280;55747;51.998;4.466;2023-04-10T11:33:21;56473.72;;;-144.48;57.63
68758;BME280;55747;51.998;4.466;2023-04-10T11:35:46;56432.38;;;-144.48;58.30
68758;BME280;55747;51.998;4.466;2023-04-10T11:38:14;56455.09;;;-144.48;58.92
68758;BME280;55747;51.998;4.466;2023-04-10T11:40:53;56411.69;;;-144.48;59.44
68758;BME280;55747;51.998;4.466;2023-04-10T11:43:18;56432.38;;;-144.48;60.63
68758;BME280;55747;51.998;4.466;2023-04-10T11:45:43;56413.75;;;-144.48;59.73
68758;BME280;55747;51.998;4.466;2023-04-10T11:48:09;56422.03;;;-144.48;60.80
68758;BME280;55747;51.998;4.466;2023-04-10T11:50:34;56426.16;;;-144.48;60.63
68758;BME280;55747;51.998;4.466;2023-04-10T11:53:00;56434.44;;;-144.48;60.69
68758;BME280;55747;51.998;4.466;2023-04-10T11:55:35;56461.31;;;-144.48;60.52
68758;BME280;55747;51.998;4.466;2023-04-10T11:58:02;56450.97;;;-144.48;60.26
68758;BME280;55747;51.998;4.466;2023-04-10T12:00:27;56455.09;;;-144.48;59.95
68758;BME280;55747;51.998;4.466;2023-04-10T12:02:52;56463.38;;;-144.48;60.25
68758;BME280;55747;51.998;4.466;2023-04-10T12:05:17;56442.69;;;-144.48;61.02
68758;BME280;55747;51.998;4.466;2023-04-10T12:07:43;56455.09;;;-144.48;60.86
68758;BME280;55747;51.998;4.466;2023-04-10T12:10:08;56450.97;;;-144.48;61.08
68758;BME280;55747;51.998;4.466;2023-04-10T12:12:34;56440.63;;;-144.48;61.17
68758;BME280;55747;51.998;4.466;2023-04-10T12:15:00;56459.25;;;-144.48;63.32
68758;BME280;55747;51.998;4.466;2023-04-10T12:17:25;56417.91;;;-144.48;65.37
68758;BME280;55747;51.998;4.466;2023-04-10T12:19:50;56422.03;;;-144.48;67.39
68758;BME280;55747;51.998;4.466;2023-04-10T12:22:16;56424.09;;;-144.48;69.41
68758;BME280;55747;51.998;4.466;2023-04-10T12:24:42;56459.25;;;-144.48;73.00
68758;BME280;55747;51.998;4.466;2023-04-10T12:27:28;56432.38;;;-144.48;74.53
68758;BME280;55747;51.998;4.466;2023-04-10T12:29:56;56444.78;;;-144.48;74.95
68758;BME280;55747;51.998;4.466;2023-04-10T12:32:22;56444.78;;;-144.48;75.79
68758;BME280;55747;51.998;4.466;2023-04-10T12:34:48;56477.84;;;-144.48;78.04
68758;BME280;55747;51.998;4.466;2023-04-10T12:37:14;56436.50;;;-144.48;79.67
68758;BME280;55747;51.998;4.466;2023-04-10T12:39:39;56492.31;;;-144.48;82.65
68758;BME280;55747;51.998;4.466;2023-04-10T12:42:14;56484.06;;;-144.48;83.37
68758;BME280;55747;51.998;4.466;2023-04-10T12:44:53;56444.78;;;-144.48;87.81
68758;BME280;55747;51.998;4.466;2023-04-10T12:47:19;56455.09;;;-144.48;89.38
68758;BME280;55747;51.998;4.466;2023-04-10T12:52:28;56479.91;;;-144.48;94.55
68758;BME280;55747;51.998;4.466;2023-04-10T12:54:53;56479.91;;;-144.48;94.94
68758;BME280;55747;51.998;4.466;2023-04-10T12:57:25;56455.09;;;-144.48;99.70
68758;BME280;55747;51.998;4.466;2023-04-10T12:59:51;56457.19;;;-144.48;99.77
68758;BME280;55747;51.998;4.466;2023-04-10T13:02:17;56448.91;;;-144.48;100.00
68758;BME280;55747;51.998;4.466;2023-04-10T13:04:44;56471.66;;;-144.48;100.00
68758;BME280;55747;51.998;4.466;2023-04-10T13:07:10;56477.84;;;-144.48;100.00
68758;BME280;55747;51.998;4.466;2023-04-10T13:09:35;56461.31;;;-144.48;100.00